首页
METAR-TAF:

METAR-TAF

机场 :

雅基馬, 华盛顿, 美国

纬度: 46-33-51N, 经度: 120-32-01W, 海拔: 333米

当前天气观测

该预报发布于31分钟前的23:53 UTC
风速9节,风向北转东北,有时为16节阵风
温度 16°C
湿度 31%
气压 1024 hPa
能見度: 16.1公里
天空无云

METAR: KYKM 182353Z 02009G16KT 10SM CLR 16/M01 A3025 RMK AO2 SLP250 T01561006 10161 20094 56015

时间: 17:24 (00:24 UTC)

预报

该预报发布于55分钟前的23:29 UTC
预报有效从19日的 00点(UTC)到 19日的 24点(UTC)
风速4节,风向多变
能見度: 10公里
天空无云
从 19日的 0300点(UTC)
风速8节,风向西
能見度: 10公里
天空无云
从 19日的 1700点(UTC)
风速4节,风向多变
能見度: 10公里
天空无云

TAF: KYKM 182329Z 1900/1924 VRB04KT P6SM SKC FM190300 28008KT P6SM SKC FM191700 VRB04KT P6SM SKC

超过4000个机场的气象观测和天气预报(METAR&TAF报告)。

可查询的气象台以黄色和红色小点在地图上表示。

将鼠标移到小点上方,可查看气象台名称。

然后点击查看天气观测和预报。

如需切换地图:点击带黑十字的绿色按钮放大地图;点击带横线的绿色按钮缩小地图;或者点击绿色箭头查看邻近地区的地图。


METAR-TAF: